Time;durP1;ratioP1;P1;durP2;ratioP2;P2;SDS_P1;SDS_P2;PMS_P1;PMS_P2;Temp;Humidity;BMP_temperature;BMP_pressure;BME280_temperature;BME280_humidity;BME280_pressure;Samples;Min_cycle;Max_cycle;Signal;HPM_P1;HPM_P2
2021/05/03 04:10:29;;;;;;;1.10;1.10;;;6.50;99.90;;;;;;6061715;23;20178;-77
2021/05/03 04:13:22;;;;;;;1.00;1.00;;;6.50;99.90;;;;;;4995933;28;20204;-77
2021/05/03 04:21:24;;;;;;;1.10;1.10;;;6.60;99.90;;;;;;4993734;28;20274;-77
2021/05/03 04:23:58;;;;;;;1.07;1.07;;;6.60;99.90;;;;;;4977114;28;20256;-76
2021/05/03 04:26:26;;;;;;;1.20;1.20;;;6.60;99.90;;;;;;4974381;28;20208;-75
2021/05/03 04:28:55;;;;;;;1.10;1.10;;;6.60;99.90;;;;;;4980780;28;20193;-75
2021/05/03 04:31:22;;;;;;;1.10;1.10;;;6.60;99.90;;;;;;5022690;23;20373;-76
2021/05/03 04:33:50;;;;;;;1.07;1.07;;;6.70;99.90;;;;;;4992855;28;20295;-78
2021/05/03 04:36:17;;;;;;;0.90;0.90;;;6.70;99.90;;;;;;4993052;28;20211;-76
2021/05/03 04:38:46;;;;;;;1.00;1.00;;;6.70;99.90;;;;;;4992985;28;20597;-75
2021/05/03 04:41:12;;;;;;;1.10;1.10;;;6.80;99.90;;;;;;4992684;28;20223;-78
2021/05/03 04:43:40;;;;;;;1.03;1.03;;;6.80;99.90;;;;;;4992840;28;20223;-76
2021/05/03 04:46:08;;;;;;;1.10;1.10;;;6.70;99.90;;;;;;4993104;28;20274;-75
2021/05/03 04:48:35;;;;;;;1.00;1.00;;;6.80;99.90;;;;;;4993054;28;20200;-77
2021/05/03 04:51:02;;;;;;;1.10;1.10;;;6.80;99.90;;;;;;4992414;28;20223;-77
2021/05/03 04:53:29;;;;;;;1.10;1.10;;;6.90;99.90;;;;;;4993520;28;20223;-76
2021/05/03 04:56:00;;;;;;;1.00;1.00;;;6.90;99.90;;;;;;4992282;28;20234;-78
2021/05/03 04:58:27;;;;;;;1.10;1.10;;;7.10;99.90;;;;;;4992699;28;20315;-77
2021/05/03 05:00:55;;;;;;;1.10;1.10;;;7.10;99.90;;;;;;4994267;28;20240;-77
2021/05/03 05:03:22;;;;;;;1.10;1.10;;;7.10;99.90;;;;;;4992991;28;20216;-74
2021/05/03 05:05:51;;;;;;;1.00;1.00;;;7.20;99.90;;;;;;4994637;28;20199;-78
2021/05/03 05:08:18;;;;;;;1.20;1.20;;;7.30;99.90;;;;;;4999602;28;20195;-76
2021/05/03 05:10:46;;;;;;;1.10;1.10;;;7.30;99.90;;;;;;5013127;28;20234;-77
2021/05/03 05:13:12;;;;;;;1.00;1.00;;;7.30;99.90;;;;;;5014893;28;20207;-79
2021/05/03 05:15:39;;;;;;;1.07;1.07;;;7.40;99.90;;;;;;5016202;28;20207;-79
2021/05/03 05:18:08;;;;;;;1.17;1.17;;;7.50;99.90;;;;;;5016299;28;20207;-78
2021/05/03 05:20:35;;;;;;;1.00;1.00;;;7.60;99.90;;;;;;5014994;28;20258;-78
2021/05/03 05:23:04;;;;;;;1.00;1.00;;;7.60;99.90;;;;;;5014495;28;20210;-77
2021/05/03 05:25:31;;;;;;;1.10;1.10;;;7.70;99.90;;;;;;5014757;28;20199;-80
2021/05/03 05:27:58;;;;;;;1.10;1.10;;;7.60;99.90;;;;;;5015084;28;20249;-77
2021/05/03 05:30:25;;;;;;;1.00;1.00;;;7.70;99.90;;;;;;5014790;28;20239;-78
2021/05/03 05:32:52;;;;;;;1.10;1.10;;;7.80;99.90;;;;;;5015494;28;20199;-78
2021/05/03 05:35:20;;;;;;;0.97;0.97;;;7.80;99.90;;;;;;5015264;28;20210;-77
2021/05/03 05:37:47;;;;;;;0.90;0.90;;;7.90;99.90;;;;;;5013957;28;20558;-77
2021/05/03 05:40:14;;;;;;;1.00;1.00;;;8.00;99.90;;;;;;5012850;28;20296;-77
2021/05/03 05:42:40;;;;;;;0.90;0.90;;;7.90;99.90;;;;;;5012894;28;20210;-77
2021/05/03 05:45:09;;;;;;;1.00;1.00;;;7.80;99.90;;;;;;5013073;28;20242;-78
2021/05/03 05:47:35;;;;;;;0.90;0.90;;;7.90;99.90;;;;;;5013117;28;20203;-77
2021/05/03 05:50:03;;;;;;;1.00;1.00;;;7.90;99.90;;;;;;5013246;28;20219;-77
2021/05/03 05:52:32;;;;;;;0.90;0.90;;;7.70;99.90;;;;;;5013264;28;20207;-76
2021/05/03 05:54:59;;;;;;;1.13;1.13;;;7.80;99.90;;;;;;5012238;28;20209;-77
2021/05/03 05:57:25;;;;;;;1.00;1.00;;;7.90;99.90;;;;;;5010150;28;20203;-77
2021/05/03 05:59:53;;;;;;;0.90;0.90;;;8.00;99.90;;;;;;5010420;28;20231;-77
2021/05/03 06:02:20;;;;;;;1.00;1.00;;;7.90;99.90;;;;;;5010453;28;20210;-77
2021/05/03 06:04:47;;;;;;;1.00;1.00;;;7.80;99.90;;;;;;5009366;28;20626;-77
2021/05/03 06:07:14;;;;;;;0.90;0.90;;;7.80;99.90;;;;;;5007598;28;20636;-78
2021/05/03 06:09:54;;;;;;;1.20;1.20;;;7.80;99.90;;;;;;5010911;28;20233;-76
2021/05/03 06:12:21;;;;;;;1.00;1.00;;;7.90;99.90;;;;;;5001774;28;20204;-76
2021/05/03 06:14:48;;;;;;;1.10;1.10;;;7.90;99.90;;;;;;4992892;28;20211;-77
2021/05/03 06:17:16;;;;;;;1.00;1.00;;;8.00;99.90;;;;;;4992995;28;20600;-78
2021/05/03 06:19:44;;;;;;;1.10;1.10;;;8.20;99.90;;;;;;5003442;28;20238;-76
2021/05/03 06:22:11;;;;;;;1.00;1.00;;;8.20;99.90;;;;;;5009016;28;20199;-77
2021/05/03 06:24:39;;;;;;;1.07;1.07;;;8.10;99.90;;;;;;5011826;28;20294;-76
2021/05/03 06:27:07;;;;;;;1.07;1.07;;;8.10;99.90;;;;;;5012081;28;20306;-76
2021/05/03 06:29:34;;;;;;;0.90;0.90;;;8.20;99.90;;;;;;5011628;28;20276;-76
2021/05/03 06:32:01;;;;;;;0.90;0.90;;;8.00;99.90;;;;;;5011997;28;20199;-78
2021/05/03 06:34:30;;;;;;;1.10;1.10;;;8.20;99.90;;;;;;5011843;28;20199;-77
2021/05/03 06:36:57;;;;;;;0.87;0.87;;;8.20;99.90;;;;;;5001747;28;20672;-77
2021/05/03 06:39:24;;;;;;;0.90;0.90;;;8.20;99.90;;;;;;4996010;28;20223;-77
2021/05/03 06:41:51;;;;;;;0.90;0.90;;;8.20;99.90;;;;;;4996207;28;20623;-77
2021/05/03 06:44:20;;;;;;;0.90;0.90;;;8.10;99.90;;;;;;4996004;28;20672;-77
2021/05/03 06:46:47;;;;;;;0.90;0.90;;;8.10;99.90;;;;;;4996071;28;20212;-77
2021/05/03 06:49:15;;;;;;;1.15;1.15;;;8.20;99.90;;;;;;4996296;28;20228;-78
2021/05/03 06:51:42;;;;;;;1.00;1.00;;;8.20;99.90;;;;;;4996079;28;20212;-78
2021/05/03 06:54:09;;;;;;;1.08;1.08;;;8.30;99.90;;;;;;4995486;28;20231;-78
2021/05/03 06:56:36;;;;;;;0.90;0.90;;;8.50;99.90;;;;;;4996058;28;20215;-77
2021/05/03 06:59:03;;;;;;;1.00;1.00;;;8.40;99.90;;;;;;4995956;28;20220;-77
2021/05/03 07:01:31;;;;;;;1.13;1.13;;;8.30;99.90;;;;;;5004338;28;20223;-77
2021/05/03 07:04:00;;;;;;;0.90;0.90;;;8.30;99.90;;;;;;4996382;28;20700;-77
2021/05/03 07:06:27;;;;;;;1.03;1.03;;;8.30;99.90;;;;;;4993918;28;20200;-78
2021/05/03 07:08:54;;;;;;;1.05;1.05;;;8.50;99.90;;;;;;4993813;28;20212;-77
2021/05/03 07:11:23;;;;;;;0.88;0.88;;;8.20;99.90;;;;;;4994575;28;20779;-77
2021/05/03 07:13:50;;;;;;;1.00;1.00;;;8.70;99.90;;;;;;4995574;28;20204;-77
2021/05/03 07:16:17;;;;;;;1.02;1.02;;;8.90;99.90;;;;;;5004598;28;20232;-77
2021/05/03 07:18:44;;;;;;;0.85;0.85;;;8.90;99.90;;;;;;5010037;28;20224;-77
2021/05/03 07:21:11;;;;;;;0.80;0.80;;;9.00;99.90;;;;;;5010107;28;20231;-76
2021/05/03 07:23:39;;;;;;;0.98;0.98;;;9.10;99.90;;;;;;5013232;28;20200;-77
2021/05/03 07:26:07;;;;;;;1.10;1.10;;;8.90;99.90;;;;;;5005813;28;20214;-77
2021/05/03 07:28:34;;;;;;;0.88;0.88;;;8.90;99.90;;;;;;4998611;28;20677;-78
2021/05/03 07:31:01;;;;;;;0.75;0.75;;;8.90;99.90;;;;;;4996294;28;20240;-77
2021/05/03 07:33:29;;;;;;;1.20;1.20;;;8.80;99.90;;;;;;4996845;28;20203;-77
2021/05/03 07:35:57;;;;;;;0.98;0.98;;;8.80;99.90;;;;;;4996432;28;20208;-78
2021/05/03 07:38:24;;;;;;;1.00;1.00;;;8.70;99.90;;;;;;4996581;28;20204;-77
2021/05/03 07:40:51;;;;;;;0.97;0.97;;;8.70;99.90;;;;;;4996385;28;20251;-77
2021/05/03 07:43:17;;;;;;;0.90;0.90;;;8.60;99.90;;;;;;4995262;28;20204;-77
2021/05/03 07:45:44;;;;;;;1.10;1.10;;;8.80;99.90;;;;;;4994537;28;20588;-77
2021/05/03 07:48:12;;;;;;;0.80;0.80;;;9.00;99.90;;;;;;4994556;28;20204;-77
2021/05/03 07:50:39;;;;;;;0.80;0.80;;;9.00;99.90;;;;;;4994281;28;20223;-76
2021/05/03 07:53:07;;;;;;;0.90;0.90;;;9.20;99.80;;;;;;4994260;28;20804;-78
2021/05/03 07:55:34;;;;;;;0.90;0.90;;;9.10;99.90;;;;;;4994777;28;20208;-77
2021/05/03 07:58:02;;;;;;;0.90;0.90;;;9.00;99.90;;;;;;4994036;28;20231;-76
2021/05/03 08:00:29;;;;;;;0.90;0.90;;;8.90;99.80;;;;;;4993204;28;20231;-75
2021/05/03 08:02:56;;;;;;;0.90;0.90;;;9.00;99.90;;;;;;4994223;28;20578;-76
2021/05/03 08:05:24;;;;;;;0.80;0.80;;;9.00;99.90;;;;;;4994205;28;20232;-76
2021/05/03 08:07:51;;;;;;;0.80;0.80;;;9.20;99.90;;;;;;4994054;28;20259;-76
2021/05/03 08:10:19;;;;;;;0.90;0.90;;;9.40;99.90;;;;;;4994114;28;20282;-76
2021/05/03 08:12:46;;;;;;;0.95;0.95;;;9.60;99.50;;;;;;4993915;28;20242;-76
2021/05/03 08:15:15;;;;;;;0.85;0.85;;;9.60;99.00;;;;;;4993859;28;20585;-76
2021/05/03 08:17:44;;;;;;;0.88;0.88;;;9.60;98.20;;;;;;4995528;28;20204;-77
2021/05/03 08:20:12;;;;;;;0.88;0.88;;;9.70;97.30;;;;;;5000579;28;20232;-76
2021/05/03 08:22:40;;;;;;;0.80;0.80;;;9.80;98.00;;;;;;4999948;28;20207;-77
2021/05/03 08:25:08;;;;;;;0.80;0.80;;;9.80;97.70;;;;;;5014829;28;20690;-76
2021/05/03 08:27:36;;;;;;;0.93;0.93;;;9.70;96.40;;;;;;5005002;28;20673;-77
2021/05/03 08:30:05;;;;;;;0.90;0.90;;;9.80;96.70;;;;;;4994592;28;20231;-77
2021/05/03 08:32:32;;;;;;;0.90;0.90;;;9.80;96.90;;;;;;4994856;28;20216;-77
2021/05/03 08:34:59;;;;;;;0.90;0.90;;;10.00;96.00;;;;;;4993651;28;20200;-75
2021/05/03 08:37:26;;;;;;;0.80;0.80;;;9.90;96.50;;;;;;4993684;28;20611;-76
2021/05/03 08:39:53;;;;;;;0.80;0.80;;;10.00;95.60;;;;;;4993374;28;20232;-75
2021/05/03 08:42:20;;;;;;;0.80;0.80;;;9.90;95.50;;;;;;4994173;28;20278;-75
2021/05/03 08:44:52;;;;;;;0.90;0.90;;;9.60;95.60;;;;;;4996733;28;20223;-76
2021/05/03 08:47:20;;;;;;;0.80;0.80;;;9.40;96.00;;;;;;4998207;28;20295;-77
2021/05/03 08:49:54;;;;;;;0.80;0.80;;;9.50;97.00;;;;;;4994177;28;20310;-76
2021/05/03 08:52:25;;;;;;;0.98;0.98;;;9.40;97.70;;;;;;4993457;28;20261;-76
2021/05/03 08:54:53;;;;;;;1.00;1.00;;;9.40;97.70;;;;;;4993164;28;20211;-77
2021/05/03 08:57:19;;;;;;;0.93;0.93;;;9.40;97.70;;;;;;4993400;28;20207;-77
2021/05/03 08:59:47;;;;;;;0.80;0.80;;;9.70;97.60;;;;;;4993310;28;20250;-76
2021/05/03 09:02:17;;;;;;;0.80;0.80;;;10.10;96.20;;;;;;4993218;28;20274;-75
2021/05/03 09:04:45;;;;;;;0.70;0.70;;;10.20;94.90;;;;;;4992947;28;20235;-76
2021/05/03 09:07:14;;;;;;;0.80;0.80;;;10.40;95.80;;;;;;4993567;28;20208;-77
2021/05/03 09:09:42;;;;;;;0.90;0.90;;;10.30;95.10;;;;;;4992927;28;20235;-75
2021/05/03 09:12:12;;;;;;;0.90;0.90;;;10.30;96.00;;;;;;4993218;28;20212;-76
2021/05/03 09:14:50;;;;;;;0.80;0.80;;;10.20;96.10;;;;;;4992737;28;20235;-75
2021/05/03 09:17:34;;;;;;;0.90;0.90;;;10.30;93.50;;;;;;5000694;28;20598;-75
2021/05/03 09:20:04;;;;;;;0.80;0.80;;;10.00;93.50;;;;;;5002806;28;20219;-75
2021/05/03 09:22:35;;;;;;;0.82;0.82;;;10.00;93.80;;;;;;5000981;28;20258;-75
2021/05/03 09:25:23;;;;;;;0.90;0.90;;;10.10;92.80;;;;;;5003074;28;20591;-75
2021/05/03 09:28:00;;;;;;;1.00;1.00;;;10.30;93.70;;;;;;5001072;28;20735;-76
2021/05/03 09:30:38;;;;;;;0.80;0.80;;;10.50;93.30;;;;;;5001347;28;20215;-75
2021/05/03 09:33:20;;;;;;;0.90;0.90;;;10.70;93.00;;;;;;4992206;28;20203;-75
2021/05/03 09:35:53;;;;;;;0.70;0.70;;;10.80;91.40;;;;;;4992215;28;20200;-75
2021/05/03 09:38:31;;;;;;;0.90;0.90;;;10.80;91.90;;;;;;5000565;28;20195;-76
2021/05/03 09:41:23;;;;;;;0.90;0.90;;;11.00;91.20;;;;;;5000987;28;20269;-75
2021/05/03 09:43:51;;;;;;;0.80;0.80;;;10.90;90.70;;;;;;4980454;28;20200;-75
2021/05/03 09:46:33;;;;;;;0.80;0.80;;;10.90;91.30;;;;;;4992554;28;20660;-76
2021/05/03 09:49:02;;;;;;;0.73;0.73;;;11.00;87.30;;;;;;5000346;28;20265;-75
2021/05/03 09:51:34;;;;;;;0.80;0.80;;;11.10;85.90;;;;;;5002784;28;20227;-75
2021/05/03 09:54:07;;;;;;;0.70;0.70;;;11.10;86.60;;;;;;4992329;28;20204;-75
2021/05/03 09:56:55;;;;;;;0.70;0.70;;;11.60;87.30;;;;;;4991975;28;20607;-75
2021/05/03 09:59:41;;;;;;;0.80;0.80;;;11.30;98.10;;;;;;4992071;28;20692;-75
2021/05/03 10:02:18;;;;;;;0.85;0.85;;;11.40;84.80;;;;;;4992276;28;20683;-74
2021/05/03 10:04:53;;;;;;;0.73;0.73;;;11.60;83.90;;;;;;4992143;28;20602;-76
2021/05/03 10:07:21;;;;;;;0.70;0.70;;;11.20;82.40;;;;;;4992854;28;20692;-75
2021/05/03 10:09:52;;;;;;;0.80;0.80;;;11.00;84.20;;;;;;4992324;28;20262;-76
2021/05/03 10:12:20;;;;;;;0.70;0.70;;;10.80;86.50;;;;;;4995117;28;20203;-77
2021/05/03 10:14:48;;;;;;;0.80;0.80;;;10.90;85.90;;;;;;4996232;28;20736;-75
2021/05/03 10:17:17;;;;;;;0.70;0.70;;;11.00;88.80;;;;;;4996278;28;20684;-77
2021/05/03 10:19:46;;;;;;;0.80;0.80;;;10.90;87.50;;;;;;4996362;28;20239;-79
2021/05/03 10:22:17;;;;;;;0.80;0.80;;;10.90;86.50;;;;;;4997859;28;20207;-76
2021/05/03 10:24:46;;;;;;;0.80;0.80;;;11.10;87.10;;;;;;4995770;28;20211;-76
2021/05/03 10:27:16;;;;;;;0.70;0.70;;;11.30;81.20;;;;;;4996675;28;20211;-76
2021/05/03 10:29:43;;;;;;;0.90;0.90;;;11.10;81.70;;;;;;4996253;28;20645;-77
2021/05/03 10:32:12;;;;;;;0.70;0.70;;;10.90;82.70;;;;;;5002982;28;20257;-76
2021/05/03 10:34:47;;;;;;;0.80;0.80;;;10.90;83.50;;;;;;5007666;28;20326;-76
2021/05/03 10:37:42;;;;;;;0.80;0.80;;;11.00;83.20;;;;;;5016907;28;20590;-75
2021/05/03 10:40:49;;;;;;;0.73;0.73;;;11.10;82.50;;;;;;5005313;28;20291;-77
2021/05/03 10:43:34;;;;;;;0.80;0.80;;;11.00;80.50;;;;;;5012489;28;20206;-77
2021/05/03 10:46:51;;;;;;;0.80;0.80;;;11.00;80.80;;;;;;5017300;28;20290;-77
2021/05/03 10:49:05;;;;;;;0.80;0.80;;;11.00;81.60;;;;;;5017810;28;20628;-76
2021/05/03 10:51:38;;;;;;;0.80;0.80;;;11.40;80.10;;;;;;5018217;28;20219;-77
2021/05/03 10:54:49;;;;;;;0.70;0.70;;;11.40;81.00;;;;;;5017108;28;20207;-76
2021/05/03 10:57:38;;;;;;;0.77;0.77;;;11.70;79.20;;;;;;5016948;28;20211;-77
2021/05/03 11:00:12;;;;;;;0.70;0.70;;;11.70;77.30;;;;;;5016509;28;20227;-78
2021/05/03 11:02:45;;;;;;;0.70;0.70;;;11.70;77.80;;;;;;5016336;28;20261;-77
2021/05/03 11:05:24;;;;;;;0.70;0.70;;;11.70;79.50;;;;;;5017795;28;20203;-78
2021/05/03 11:08:27;;;;;;;0.80;0.80;;;11.70;78.60;;;;;;5018210;28;20221;-78
2021/05/03 11:10:56;;;;;;;0.80;0.80;;;11.60;79.20;;;;;;5017531;28;20218;-78
2021/05/03 11:13:45;;;;;;;0.80;0.80;;;11.40;79.40;;;;;;5017776;28;20207;-77
2021/05/03 11:17:00;;;;;;;0.88;0.88;;;11.30;80.50;;;;;;5028556;28;20212;-77
2021/05/03 11:19:52;;;;;;;0.80;0.80;;;11.40;94.40;;;;;;5016339;28;20730;-77
2021/05/03 11:22:21;;;;;;;0.80;0.80;;;11.50;77.00;;;;;;5017649;28;20254;-78
2021/05/03 11:24:53;;;;;;;0.77;0.77;;;11.60;78.10;;;;;;5016111;28;20207;-77
2021/05/03 11:27:35;;;;;;;0.65;0.65;;;11.70;80.60;;;;;;5017938;28;20217;-78
2021/05/03 11:30:06;;;;;;;0.70;0.70;;;11.70;78.80;;;;;;5017627;28;20223;-78
2021/05/03 11:32:36;;;;;;;0.70;0.70;;;12.00;76.50;;;;;;5018345;28;20207;-78
2021/05/03 11:35:15;;;;;;;0.70;0.70;;;11.90;77.20;;;;;;5018349;28;20298;-79
2021/05/03 11:37:46;;;;;;;0.80;0.80;;;12.00;77.80;;;;;;5016586;28;20257;-77
2021/05/03 11:40:29;;;;;;;0.70;0.70;;;12.20;78.10;;;;;;5017072;28;20246;-78
2021/05/03 11:43:32;;;;;;;0.70;0.70;;;12.20;75.90;;;;;;5018229;28;20210;-79
2021/05/03 11:46:04;;;;;;;0.75;0.75;;;12.20;75.90;;;;;;5034089;28;20206;-75
2021/05/03 11:48:33;;;;;;;0.82;0.82;;;12.30;76.10;;;;;;5036608;28;20204;-76
2021/05/03 11:51:04;;;;;;;0.80;0.80;;;12.40;74.10;;;;;;5037589;28;20212;-75
2021/05/03 11:53:36;;;;;;;0.70;0.70;;;12.60;73.40;;;;;;5035290;28;20249;-79
2021/05/03 11:56:17;;;;;;;0.70;0.70;;;12.70;71.60;;;;;;5014485;28;20203;-78
2021/05/03 11:58:46;;;;;;;0.70;0.70;;;12.60;71.80;;;;;;5013993;28;20261;-76
2021/05/03 12:01:14;;;;;;;0.77;0.77;;;12.50;73.60;;;;;;4999998;28;20220;-77
2021/05/03 12:03:42;;;;;;;0.70;0.70;;;12.40;73.50;;;;;;5006639;28;20204;-78
2021/05/03 12:06:09;;;;;;;0.70;0.70;;;12.20;73.00;;;;;;4995899;28;20200;-77
2021/05/03 12:08:36;;;;;;;0.80;0.80;;;12.30;73.80;;;;;;5005696;28;20200;-77
2021/05/03 12:11:07;;;;;;;0.70;0.70;;;12.40;74.40;;;;;;5000058;28;20216;-78
2021/05/03 12:13:34;;;;;;;0.60;0.60;;;12.50;75.50;;;;;;5004271;28;20208;-76
2021/05/03 12:16:02;;;;;;;0.70;0.70;;;12.80;75.70;;;;;;5000163;28;20191;-77
2021/05/03 12:18:29;;;;;;;0.70;0.70;;;12.90;74.00;;;;;;5012384;28;20195;-78
2021/05/03 12:20:56;;;;;;;0.70;0.70;;;12.90;75.90;;;;;;5004087;28;20692;-77
2021/05/03 12:23:26;;;;;;;0.60;0.60;;;;;;;;;;5004334;28;20204;-79
2021/05/03 12:25:56;;;;;;;0.60;0.60;;;13.10;92.20;;;;;;5002425;28;20203;-76
2021/05/03 12:28:25;;;;;;;0.70;0.70;;;13.20;89.90;;;;;;5006281;28;20723;-77
2021/05/03 12:30:57;;;;;;;0.70;0.70;;;13.20;89.10;;;;;;5005530;28;20216;-79
2021/05/03 12:33:27;;;;;;;0.60;0.60;;;13.00;87.20;;;;;;5005601;28;20204;-79
2021/05/03 12:35:55;;;;;;;0.70;0.70;;;13.00;90.00;;;;;;5003348;28;20203;-77
2021/05/03 12:38:24;;;;;;;0.82;0.82;;;13.20;80.90;;;;;;5004901;28;20215;-78
2021/05/03 12:40:52;;;;;;;0.70;0.70;;;13.10;77.50;;;;;;5004122;28;20220;-77
2021/05/03 12:43:22;;;;;;;0.70;0.70;;;13.10;81.30;;;;;;5006060;28;20195;-78
2021/05/03 12:46:00;;;;;;;0.50;0.50;;;13.20;80.00;;;;;;5006523;28;20199;-76
2021/05/03 12:48:36;;;;;;;0.65;0.65;;;13.60;73.00;;;;;;4997955;28;20199;-79
2021/05/03 12:54:06;;;;;;;0.60;0.60;;;14.10;70.90;;;;;;5026125;28;20664;-77
2021/05/03 12:56:39;;;;;;;0.60;0.60;;;13.80;69.20;;;;;;5025625;28;20274;-77
2021/05/03 12:59:16;;;;;;;0.60;0.60;;;13.70;67.40;;;;;;5015241;28;20207;-77
2021/05/03 13:01:48;;;;;;;0.50;0.50;;;13.50;69.30;;;;;;5013463;28;20202;-77
2021/05/03 13:04:32;;;;;;;0.60;0.60;;;13.80;70.60;;;;;;5004451;28;20204;-77
2021/05/03 13:29:57;;;;;;;0.70;0.70;;;14.10;67.40;;;;;;5015577;28;20253;-75
2021/05/03 13:32:27;;;;;;;0.60;0.60;;;13.80;68.30;;;;;;5022460;28;20219;-77
2021/05/03 13:34:55;;;;;;;0.70;0.70;;;14.10;67.70;;;;;;5015496;28;20192;-79
2021/05/03 13:37:23;;;;;;;0.65;0.65;;;13.80;66.70;;;;;;5000648;28;20204;-77
2021/05/03 13:40:10;;;;;;;0.70;0.70;;;13.90;65.40;;;;;;4995261;28;20634;-78
2021/05/03 13:42:37;;;;;;;0.70;0.70;;;13.90;65.80;;;;;;4996382;28;20212;-77
2021/05/03 13:45:06;;;;;;;0.65;0.65;;;13.90;67.50;;;;;;4996908;28;20204;-79
2021/05/03 13:47:33;;;;;;;0.70;0.70;;;14.20;67.20;;;;;;4995842;28;20207;-77
2021/05/03 13:50:00;;;;;;;0.60;0.60;;;14.60;65.90;;;;;;4996266;28;20216;-79
2021/05/03 13:52:28;;;;;;;0.70;0.70;;;14.80;65.80;;;;;;4996825;28;20587;-76
2021/05/03 13:54:55;;;;;;;0.60;0.60;;;15.10;65.30;;;;;;4996446;28;20208;-78
2021/05/03 13:57:23;;;;;;;0.60;0.60;;;15.30;66.40;;;;;;4997526;28;20211;-78
2021/05/03 13:59:50;;;;;;;0.60;0.60;;;15.00;61.30;;;;;;4995706;28;20228;-76
2021/05/03 14:02:17;;;;;;;0.63;0.63;;;14.60;63.80;;;;;;5003414;28;20206;-74
2021/05/03 14:04:45;;;;;;;0.70;0.70;;;14.70;63.50;;;;;;4990571;28;21600;-77
2021/05/03 14:07:12;;;;;;;0.50;0.50;;;14.60;63.20;;;;;;5007111;28;20262;-75
2021/05/03 14:09:40;;;;;;;0.50;0.50;;;14.70;67.90;;;;;;5008456;28;20216;-76
2021/05/03 14:12:08;;;;;;;0.52;0.52;;;14.90;64.40;;;;;;5002033;28;20203;-76
2021/05/03 14:14:37;;;;;;;0.70;0.70;;;14.90;65.50;;;;;;5002554;28;20663;-77
2021/05/03 14:17:07;;;;;;;0.65;0.65;;;14.70;63.50;;;;;;5001209;28;20200;-73
2021/05/03 14:19:41;;;;;;;0.60;0.60;;;15.10;62.60;;;;;;5000817;28;20243;-76
2021/05/03 14:22:08;;;;;;;0.40;0.40;;;15.20;62.50;;;;;;5002210;28;20199;-76
2021/05/03 14:24:35;;;;;;;0.40;0.40;;;15.40;61.20;;;;;;5002965;28;20204;-77
2021/05/03 14:27:03;;;;;;;0.50;0.50;;;15.60;62.00;;;;;;5001311;28;20192;-77
2021/05/03 14:29:35;;;;;;;0.60;0.60;;;15.10;61.60;;;;;;5000711;28;20540;-76
2021/05/03 14:32:04;;;;;;;0.40;0.40;;;15.30;63.00;;;;;;5000641;28;20617;-76
2021/05/03 14:34:33;;;;;;;0.60;0.60;;;15.70;61.30;;;;;;5001154;28;20207;-76
2021/05/03 14:37:00;;;;;;;0.40;0.40;;;15.70;60.80;;;;;;5003029;28;20195;-76
2021/05/03 14:39:27;;;;;;;0.60;0.60;;;15.70;90.40;;;;;;5001310;28;20196;-77
2021/05/03 14:41:54;;;;;;;0.60;0.60;;;15.90;60.10;;;;;;5000926;28;20876;-76
2021/05/03 14:44:22;;;;;;;0.50;0.50;;;16.00;60.80;;;;;;5000265;28;20684;-76
2021/05/03 14:46:53;;;;;;;0.43;0.43;;;15.80;59.30;;;;;;5003566;28;20286;-79
2021/05/03 14:49:30;;;;;;;0.50;0.50;;;16.10;88.90;;;;;;5009169;28;20195;-77
2021/05/03 14:51:59;;;;;;;0.40;0.40;;;16.00;59.30;;;;;;5007812;28;20212;-77
2021/05/03 14:54:33;;;;;;;0.50;0.50;;;15.90;59.00;;;;;;5007366;28;20195;-78
2021/05/03 14:57:02;;;;;;;0.50;0.50;;;15.80;59.90;;;;;;5018224;28;20215;-77
2021/05/03 14:59:32;;;;;;;0.50;0.50;;;15.90;60.10;;;;;;5016458;28;20229;-77
2021/05/03 15:01:59;;;;;;;0.50;0.50;;;15.80;60.20;;;;;;5002468;28;20685;-78
2021/05/03 15:04:27;;;;;;;0.50;0.50;;;16.00;60.10;;;;;;4997158;28;20212;-77
2021/05/03 15:06:58;;;;;;;0.60;0.60;;;16.20;64.10;;;;;;5002987;28;20670;-76
2021/05/03 15:09:27;;;;;;;0.60;0.60;;;15.60;68.00;;;;;;5006537;28;20199;-78
2021/05/03 15:11:56;;;;;;;0.50;0.50;;;15.60;70.90;;;;;;5014858;28;20606;-77
2021/05/03 15:14:30;;;;;;;0.60;0.60;;;16.20;71.00;;;;;;5013718;28;20273;-77
2021/05/03 15:17:07;;;;;;;0.57;0.57;;;;;;;;;;5014771;28;20728;-77
2021/05/03 15:19:38;;;;;;;0.40;0.40;;;16.90;67.90;;;;;;5014000;28;20281;-77
2021/05/03 15:22:05;;;;;;;0.50;0.50;;;16.90;63.10;;;;;;4995638;28;20203;-75
2021/05/03 15:24:33;;;;;;;0.40;0.40;;;16.70;60.20;;;;;;4995260;28;20627;-77
2021/05/03 15:27:02;;;;;;;0.40;0.40;;;16.60;57.20;;;;;;5010147;28;20258;-77
2021/05/03 15:29:40;;;;;;;0.40;0.40;;;;;;;;;;5016495;28;20265;-77
2021/05/03 15:34:52;;;;;;;0.60;0.60;;;15.80;57.60;;;;;;5007419;28;20199;-75
2021/05/03 15:37:20;;;;;;;0.60;0.60;;;15.40;57.80;;;;;;5004121;28;20207;-78
2021/05/03 15:39:47;;;;;;;0.40;0.40;;;15.70;58.10;;;;;;4996600;28;20227;-77
2021/05/03 15:42:14;;;;;;;0.40;0.40;;;16.10;56.80;;;;;;4996858;28;20204;-77
2021/05/03 15:44:47;;;;;;;0.50;0.50;;;16.40;59.70;;;;;;4997568;28;20248;-77
2021/05/03 15:47:15;;;;;;;0.40;0.40;;;16.20;56.70;;;;;;5001561;28;20262;-77
2021/05/03 15:49:43;;;;;;;0.50;0.50;;;16.00;56.00;;;;;;4996474;28;20712;-77
2021/05/03 15:52:10;;;;;;;0.40;0.40;;;16.40;55.70;;;;;;5009851;28;20700;-77
2021/05/03 15:54:37;;;;;;;0.50;0.50;;;16.30;56.20;;;;;;5014048;28;20199;-77
2021/05/03 15:57:05;;;;;;;0.50;0.50;;;16.30;56.60;;;;;;5014828;28;20199;-76
2021/05/03 15:59:32;;;;;;;0.50;0.50;;;;;;;;;;5013576;28;20203;-79
2021/05/03 16:02:00;;;;;;;0.40;0.40;;;17.60;54.00;;;;;;5008152;28;20223;-79
2021/05/03 16:04:30;;;;;;;0.40;0.40;;;18.10;71.50;;;;;;4997678;28;20274;-80
2021/05/03 16:06:57;;;;;;;0.40;0.40;;;17.80;52.10;;;;;;4997544;28;20204;-77
2021/05/03 16:09:25;;;;;;;0.50;0.50;;;17.10;69.20;;;;;;4997105;28;20425;-78
2021/05/03 16:11:52;;;;;;;0.40;0.40;;;16.90;52.40;;;;;;4997576;28;20598;-78
2021/05/03 16:14:19;;;;;;;0.50;0.50;;;16.60;52.70;;;;;;4996460;28;20208;-76
2021/05/03 16:16:46;;;;;;;0.50;0.50;;;16.50;54.30;;;;;;4996425;28;20199;-78
2021/05/03 16:19:14;;;;;;;0.40;0.40;;;;;;;;;;4997837;28;20204;-77
2021/05/03 16:21:42;;;;;;;0.50;0.50;;;17.50;52.00;;;;;;4998109;28;20322;-76
2021/05/03 16:24:09;;;;;;;0.40;0.40;;;17.60;52.60;;;;;;4996570;28;20211;-76
2021/05/03 16:26:36;;;;;;;0.35;0.35;;;18.00;52.80;;;;;;4996342;28;20203;-78
2021/05/03 16:29:03;;;;;;;0.30;0.30;;;18.00;52.30;;;;;;5015898;28;20199;-76
2021/05/03 16:31:30;;;;;;;0.30;0.30;;;18.00;51.40;;;;;;5014534;28;20227;-79
2021/05/03 16:33:57;;;;;;;0.30;0.30;;;17.90;52.00;;;;;;5019224;28;20199;-77
2021/05/03 16:36:24;;;;;;;0.30;0.30;;;17.50;52.80;;;;;;5016176;28;20212;-77
2021/05/03 16:38:52;;;;;;;0.40;0.40;;;16.70;53.90;;;;;;5006342;28;20208;-76
2021/05/03 16:41:19;;;;;;;0.40;0.40;;;16.30;55.10;;;;;;5016115;28;20219;-77
2021/05/03 16:43:46;;;;;;;0.40;0.40;;;16.10;55.90;;;;;;5012710;28;20200;-77
2021/05/03 16:46:13;;;;;;;0.40;0.40;;;16.30;57.90;;;;;;5017664;28;20196;-77
2021/05/03 16:48:42;;;;;;;0.40;0.40;;;16.90;55.00;;;;;;5023856;28;20199;-75
2021/05/03 16:51:10;;;;;;;0.40;0.40;;;17.20;54.40;;;;;;5027642;28;20260;-76
2021/05/03 16:53:37;;;;;;;0.40;0.40;;;;;;;;;;5031553;28;20637;-78
2021/05/03 16:56:05;;;;;;;0.30;0.30;;;;;;;;;;5021577;28;20199;-75
2021/05/03 16:58:32;;;;;;;0.40;0.40;;;17.90;67.80;;;;;;5019967;28;20323;-77
2021/05/03 17:00:59;;;;;;;0.40;0.40;;;18.70;54.70;;;;;;5009483;28;20696;-78
2021/05/03 17:03:26;;;;;;;0.40;0.40;;;18.40;58.10;;;;;;5005183;28;20206;-77
2021/05/03 17:05:53;;;;;;;0.40;0.40;;;17.80;54.60;;;;;;5007136;28;20310;-78
2021/05/03 17:08:20;;;;;;;0.40;0.40;;;18.00;57.00;;;;;;5008670;28;20257;-76
2021/05/03 17:10:47;;;;;;;0.40;0.40;;;17.10;54.40;;;;;;5011727;28;20293;-79
2021/05/03 17:13:15;;;;;;;0.40;0.40;;;;;;;;;;5006384;28;20199;-79
2021/05/03 17:15:42;;;;;;;0.40;0.40;;;16.90;55.70;;;;;;4998404;28;20487;-79
2021/05/03 17:18:09;;;;;;;0.40;0.40;;;16.50;55.20;;;;;;4998404;28;20204;-79
2021/05/03 17:20:36;;;;;;;0.50;0.50;;;16.60;56.20;;;;;;4996351;28;20224;-77
2021/05/03 17:23:04;;;;;;;0.40;0.40;;;16.90;56.40;;;;;;5001881;28;20208;-79
2021/05/03 17:25:31;;;;;;;0.40;0.40;;;16.70;55.80;;;;;;5000881;28;20203;-78
2021/05/03 17:27:57;;;;;;;0.40;0.40;;;15.80;80.00;;;;;;5011554;28;20222;-77
2021/05/03 17:30:25;;;;;;;0.60;0.60;;;15.80;57.60;;;;;;5012867;28;20227;-77
2021/05/03 17:32:59;;;;;;;0.40;0.40;;;15.10;58.30;;;;;;5016285;28;20261;-77
2021/05/03 17:35:26;;;;;;;0.50;0.50;;;15.10;59.00;;;;;;5016603;28;20253;-77
2021/05/03 17:37:53;;;;;;;0.40;0.40;;;15.00;60.50;;;;;;5017925;28;20234;-75
2021/05/03 17:40:21;;;;;;;0.50;0.50;;;14.90;62.00;;;;;;5018531;28;20570;-79
2021/05/03 17:42:48;;;;;;;0.50;0.50;;;14.90;63.10;;;;;;5015138;28;20207;-76
2021/05/03 17:45:15;;;;;;;0.45;0.45;;;14.90;68.50;;;;;;5011217;28;20206;-76
2021/05/03 17:47:44;;;;;;;0.60;0.60;;;14.60;66.60;;;;;;5012584;28;20219;-77
2021/05/03 17:50:12;;;;;;;0.60;0.60;;;14.40;67.00;;;;;;5011904;28;20226;-77
2021/05/03 17:52:39;;;;;;;0.60;0.60;;;14.60;70.10;;;;;;5011899;28;20258;-76